sensor_id;sensor_type;location;lat;lon;timestamp;temperature;humidity
24207;DHT22;12351;52.284;9.160;2024-03-17T00:02:23;6.80;99.90
24207;DHT22;12351;52.284;9.160;2024-03-17T00:05:12;6.70;99.90
24207;DHT22;12351;52.284;9.160;2024-03-17T00:08:04;6.70;99.90
24207;DHT22;12351;52.284;9.160;2024-03-17T00:10:55;6.70;99.90
24207;DHT22;12351;52.284;9.160;2024-03-17T00:13:46;6.70;99.90
24207;DHT22;12351;52.284;9.160;2024-03-17T00:16:34;6.60;99.90
24207;DHT22;12351;52.284;9.160;2024-03-17T00:19:23;6.60;99.90
24207;DHT22;12351;52.284;9.160;2024-03-17T00:22:11;6.60;99.90
24207;DHT22;12351;52.284;9.160;2024-03-17T00:25:04;6.50;99.90
24207;DHT22;12351;52.284;9.160;2024-03-17T00:27:50;6.50;99.90
24207;DHT22;12351;52.284;9.160;2024-03-17T00:30:42;6.50;99.90
24207;DHT22;12351;52.284;9.160;2024-03-17T00:33:33;6.50;99.90
24207;DHT22;12351;52.284;9.160;2024-03-17T00:36:23;6.40;99.90
24207;DHT22;12351;52.284;9.160;2024-03-17T00:39:13;6.40;99.90
24207;DHT22;12351;52.284;9.160;2024-03-17T00:42:03;6.40;99.90
24207;DHT22;12351;52.284;9.160;2024-03-17T00:44:53;6.40;99.90
24207;DHT22;12351;52.284;9.160;2024-03-17T00:47:43;6.30;99.90
24207;DHT22;12351;52.284;9.160;2024-03-17T00:50:32;6.30;99.90
24207;DHT22;12351;52.284;9.160;2024-03-17T00:53:22;6.20;99.90
24207;DHT22;12351;52.284;9.160;2024-03-17T00:56:11;6.20;99.90
24207;DHT22;12351;52.284;9.160;2024-03-17T00:59:04;6.20;99.90
24207;DHT22;12351;52.284;9.160;2024-03-17T01:01:53;6.10;99.90
24207;DHT22;12351;52.284;9.160;2024-03-17T01:04:44;6.10;99.90
24207;DHT22;12351;52.284;9.160;2024-03-17T01:07:35;6.00;99.90
24207;DHT22;12351;52.284;9.160;2024-03-17T01:10:26;6.00;99.90
24207;DHT22;12351;52.284;9.160;2024-03-17T01:13:13;6.00;99.90
24207;DHT22;12351;52.284;9.160;2024-03-17T01:16:02;6.00;99.90
24207;DHT22;12351;52.284;9.160;2024-03-17T01:18:53;5.90;99.90
24207;DHT22;12351;52.284;9.160;2024-03-17T01:21:42;5.90;99.90
24207;DHT22;12351;52.284;9.160;2024-03-17T01:24:30;5.90;99.90
24207;DHT22;12351;52.284;9.160;2024-03-17T01:27:20;5.80;99.90
24207;DHT22;12351;52.284;9.160;2024-03-17T01:30:10;5.80;99.90
24207;DHT22;12351;52.284;9.160;2024-03-17T01:33:01;5.80;99.90
24207;DHT22;12351;52.284;9.160;2024-03-17T01:35:54;5.70;99.90
24207;DHT22;12351;52.284;9.160;2024-03-17T01:38:43;5.70;99.90
24207;DHT22;12351;52.284;9.160;2024-03-17T01:41:33;5.70;99.90
24207;DHT22;12351;52.284;9.160;2024-03-17T01:44:23;5.60;99.90
24207;DHT22;12351;52.284;9.160;2024-03-17T01:47:17;5.60;99.90
24207;DHT22;12351;52.284;9.160;2024-03-17T01:50:08;5.60;99.90
24207;DHT22;12351;52.284;9.160;2024-03-17T01:53:00;5.50;99.90
24207;DHT22;12351;52.284;9.160;2024-03-17T01:55:50;5.50;99.90
24207;DHT22;12351;52.284;9.160;2024-03-17T01:58:42;5.50;99.90
24207;DHT22;12351;52.284;9.160;2024-03-17T02:01:31;5.50;99.90
24207;DHT22;12351;52.284;9.160;2024-03-17T02:04:19;5.40;99.90
24207;DHT22;12351;52.284;9.160;2024-03-17T02:07:10;5.40;99.90
24207;DHT22;12351;52.284;9.160;2024-03-17T02:09:58;5.30;99.90
24207;DHT22;12351;52.284;9.160;2024-03-17T02:12:46;5.30;99.90
24207;DHT22;12351;52.284;9.160;2024-03-17T02:15:39;5.30;99.90
24207;DHT22;12351;52.284;9.160;2024-03-17T02:18:27;5.30;99.90
24207;DHT22;12351;52.284;9.160;2024-03-17T02:21:18;5.20;99.90
24207;DHT22;12351;52.284;9.160;2024-03-17T02:24:10;5.20;99.90
24207;DHT22;12351;52.284;9.160;2024-03-17T02:26:58;5.10;99.90
24207;DHT22;12351;52.284;9.160;2024-03-17T02:29:48;5.10;99.90
24207;DHT22;12351;52.284;9.160;2024-03-17T02:32:38;5.10;99.90
24207;DHT22;12351;52.284;9.160;2024-03-17T02:35:26;5.10;99.90
24207;DHT22;12351;52.284;9.160;2024-03-17T02:38:16;5.00;99.90
24207;DHT22;12351;52.284;9.160;2024-03-17T02:41:06;5.00;99.90
24207;DHT22;12351;52.284;9.160;2024-03-17T02:43:54;4.90;99.90
24207;DHT22;12351;52.284;9.160;2024-03-17T02:46:44;4.90;99.90
24207;DHT22;12351;52.284;9.160;2024-03-17T02:49:31;4.90;99.90
24207;DHT22;12351;52.284;9.160;2024-03-17T02:52:21;4.90;99.90
24207;DHT22;12351;52.284;9.160;2024-03-17T02:55:14;4.80;99.90
24207;DHT22;12351;52.284;9.160;2024-03-17T02:58:02;4.80;99.90
24207;DHT22;12351;52.284;9.160;2024-03-17T03:00:50;4.80;99.90
24207;DHT22;12351;52.284;9.160;2024-03-17T03:03:38;4.80;99.90
24207;DHT22;12351;52.284;9.160;2024-03-17T03:06:28;4.70;99.90
24207;DHT22;12351;52.284;9.160;2024-03-17T03:09:17;4.70;99.90
24207;DHT22;12351;52.284;9.160;2024-03-17T03:12:07;4.70;99.90
24207;DHT22;12351;52.284;9.160;2024-03-17T03:29:12;4.50;99.90
24207;DHT22;12351;52.284;9.160;2024-03-17T03:32:03;4.50;99.90
24207;DHT22;12351;52.284;9.160;2024-03-17T03:34:52;4.40;99.90
24207;DHT22;12351;52.284;9.160;2024-03-17T03:37:43;4.40;99.90
24207;DHT22;12351;52.284;9.160;2024-03-17T03:40:32;4.40;99.90
24207;DHT22;12351;52.284;9.160;2024-03-17T03:43:20;4.40;99.90
24207;DHT22;12351;52.284;9.160;2024-03-17T03:46:09;4.30;99.90
24207;DHT22;12351;52.284;9.160;2024-03-17T03:48:58;4.30;99.90
24207;DHT22;12351;52.284;9.160;2024-03-17T03:51:49;4.30;99.90
24207;DHT22;12351;52.284;9.160;2024-03-17T03:54:42;4.30;99.90
24207;DHT22;12351;52.284;9.160;2024-03-17T03:57:31;4.20;99.90
24207;DHT22;12351;52.284;9.160;2024-03-17T04:00:21;4.20;99.90
24207;DHT22;12351;52.284;9.160;2024-03-17T04:03:10;4.20;99.90
24207;DHT22;12351;52.284;9.160;2024-03-17T04:06:02;4.10;99.90
24207;DHT22;12351;52.284;9.160;2024-03-17T04:08:51;4.10;99.90
24207;DHT22;12351;52.284;9.160;2024-03-17T04:11:40;4.10;99.90
24207;DHT22;12351;52.284;9.160;2024-03-17T04:14:30;4.10;99.90
24207;DHT22;12351;52.284;9.160;2024-03-17T04:17:21;4.10;99.90
24207;DHT22;12351;52.284;9.160;2024-03-17T04:20:09;4.00;99.90
24207;DHT22;12351;52.284;9.160;2024-03-17T04:22:59;4.00;99.90
24207;DHT22;12351;52.284;9.160;2024-03-17T04:25:47;4.00;99.90
24207;DHT22;12351;52.284;9.160;2024-03-17T04:28:39;4.00;99.90
24207;DHT22;12351;52.284;9.160;2024-03-17T04:31:25;3.90;99.90
24207;DHT22;12351;52.284;9.160;2024-03-17T04:34:14;3.90;99.90
24207;DHT22;12351;52.284;9.160;2024-03-17T04:37:05;3.90;99.90
24207;DHT22;12351;52.284;9.160;2024-03-17T04:39:52;3.90;99.90
24207;DHT22;12351;52.284;9.160;2024-03-17T04:42:40;3.90;99.90
24207;DHT22;12351;52.284;9.160;2024-03-17T04:45:31;3.90;99.90
24207;DHT22;12351;52.284;9.160;2024-03-17T04:48:21;3.90;99.90
24207;DHT22;12351;52.284;9.160;2024-03-17T04:51:14;3.80;99.90
24207;DHT22;12351;52.284;9.160;2024-03-17T04:54:01;3.90;99.90
24207;DHT22;12351;52.284;9.160;2024-03-17T04:56:49;3.80;99.90
24207;DHT22;12351;52.284;9.160;2024-03-17T04:59:37;3.80;99.90
24207;DHT22;12351;52.284;9.160;2024-03-17T05:02:29;3.80;99.90
24207;DHT22;12351;52.284;9.160;2024-03-17T05:05:18;3.80;99.90
24207;DHT22;12351;52.284;9.160;2024-03-17T05:08:06;3.80;99.90
24207;DHT22;12351;52.284;9.160;2024-03-17T05:13:47;3.90;99.90
24207;DHT22;12351;52.284;9.160;2024-03-17T05:16:36;3.80;99.90
24207;DHT22;12351;52.284;9.160;2024-03-17T05:19:26;3.80;99.90
24207;DHT22;12351;52.284;9.160;2024-03-17T05:22:14;3.90;99.90
24207;DHT22;12351;52.284;9.160;2024-03-17T05:25:04;3.90;99.90
24207;DHT22;12351;52.284;9.160;2024-03-17T05:27:54;3.90;99.90
24207;DHT22;12351;52.284;9.160;2024-03-17T05:30:44;3.90;99.90
24207;DHT22;12351;52.284;9.160;2024-03-17T05:33:34;3.90;99.90
24207;DHT22;12351;52.284;9.160;2024-03-17T05:36:22;3.90;99.90
24207;DHT22;12351;52.284;9.160;2024-03-17T05:39:10;3.90;99.90
24207;DHT22;12351;52.284;9.160;2024-03-17T05:42:00;3.90;99.90
24207;DHT22;12351;52.284;9.160;2024-03-17T05:44:50;3.90;99.90
24207;DHT22;12351;52.284;9.160;2024-03-17T05:47:39;3.90;99.90
24207;DHT22;12351;52.284;9.160;2024-03-17T05:50:29;3.90;99.90
24207;DHT22;12351;52.284;9.160;2024-03-17T05:53:18;3.90;99.90
24207;DHT22;12351;52.284;9.160;2024-03-17T05:56:05;3.90;99.90
24207;DHT22;12351;52.284;9.160;2024-03-17T05:58:55;3.90;99.90
24207;DHT22;12351;52.284;9.160;2024-03-17T06:01:43;3.90;99.90
24207;DHT22;12351;52.284;9.160;2024-03-17T06:04:31;3.90;99.90
24207;DHT22;12351;52.284;9.160;2024-03-17T06:07:19;3.90;99.90
24207;DHT22;12351;52.284;9.160;2024-03-17T06:10:11;3.90;99.90
24207;DHT22;12351;52.284;9.160;2024-03-17T06:12:58;3.90;99.90
24207;DHT22;12351;52.284;9.160;2024-03-17T06:15:49;3.90;99.90
24207;DHT22;12351;52.284;9.160;2024-03-17T06:18:36;3.90;99.90
24207;DHT22;12351;52.284;9.160;2024-03-17T06:21:24;3.90;99.90
24207;DHT22;12351;52.284;9.160;2024-03-17T06:24:13;3.90;99.90
24207;DHT22;12351;52.284;9.160;2024-03-17T06:27:02;4.00;99.90
24207;DHT22;12351;52.284;9.160;2024-03-17T06:29:52;4.00;99.90
24207;DHT22;12351;52.284;9.160;2024-03-17T06:32:38;4.00;99.90
24207;DHT22;12351;52.284;9.160;2024-03-17T06:35:28;4.00;99.90
24207;DHT22;12351;52.284;9.160;2024-03-17T06:38:17;4.00;99.90
24207;DHT22;12351;52.284;9.160;2024-03-17T06:41:06;4.10;99.90
24207;DHT22;12351;52.284;9.160;2024-03-17T06:43:55;4.10;99.90
24207;DHT22;12351;52.284;9.160;2024-03-17T06:46:44;4.10;99.90
24207;DHT22;12351;52.284;9.160;2024-03-17T06:49:33;4.10;99.90
24207;DHT22;12351;52.284;9.160;2024-03-17T06:52:25;4.20;99.90
24207;DHT22;12351;52.284;9.160;2024-03-17T06:55:15;4.20;99.90
24207;DHT22;12351;52.284;9.160;2024-03-17T06:58:04;4.20;99.90
24207;DHT22;12351;52.284;9.160;2024-03-17T07:00:54;4.20;99.90
24207;DHT22;12351;52.284;9.160;2024-03-17T07:03:46;4.20;99.90
24207;DHT22;12351;52.284;9.160;2024-03-17T07:06:38;4.30;99.90
24207;DHT22;12351;52.284;9.160;2024-03-17T07:09:24;4.30;99.90
24207;DHT22;12351;52.284;9.160;2024-03-17T07:12:13;4.40;99.90
24207;DHT22;12351;52.284;9.160;2024-03-17T07:15:04;4.50;99.90
24207;DHT22;12351;52.284;9.160;2024-03-17T07:17:53;4.60;99.90
24207;DHT22;12351;52.284;9.160;2024-03-17T07:20:40;4.60;99.90
24207;DHT22;12351;52.284;9.160;2024-03-17T07:23:28;4.70;99.90
24207;DHT22;12351;52.284;9.160;2024-03-17T07:26:16;4.80;99.90
24207;DHT22;12351;52.284;9.160;2024-03-17T07:29:04;4.90;99.90
24207;DHT22;12351;52.284;9.160;2024-03-17T07:31:55;5.00;99.90
24207;DHT22;12351;52.284;9.160;2024-03-17T07:34:45;5.10;99.90
24207;DHT22;12351;52.284;9.160;2024-03-17T07:37:36;5.20;99.90
24207;DHT22;12351;52.284;9.160;2024-03-17T07:40:26;5.30;99.90
24207;DHT22;12351;52.284;9.160;2024-03-17T07:43:14;5.40;99.90
24207;DHT22;12351;52.284;9.160;2024-03-17T07:46:05;5.50;99.90
24207;DHT22;12351;52.284;9.160;2024-03-17T07:48:51;5.50;99.90
24207;DHT22;12351;52.284;9.160;2024-03-17T07:51:41;5.60;99.90
24207;DHT22;12351;52.284;9.160;2024-03-17T07:54:30;5.70;99.90
24207;DHT22;12351;52.284;9.160;2024-03-17T07:57:18;5.80;99.90
24207;DHT22;12351;52.284;9.160;2024-03-17T08:00:07;5.90;99.90
24207;DHT22;12351;52.284;9.160;2024-03-17T08:02:58;6.00;99.90
24207;DHT22;12351;52.284;9.160;2024-03-17T08:05:49;6.00;99.90
24207;DHT22;12351;52.284;9.160;2024-03-17T08:08:41;6.10;99.90
24207;DHT22;12351;52.284;9.160;2024-03-17T08:11:29;6.30;99.90
24207;DHT22;12351;52.284;9.160;2024-03-17T08:14:20;6.30;99.90
24207;DHT22;12351;52.284;9.160;2024-03-17T08:17:11;6.40;99.90
24207;DHT22;12351;52.284;9.160;2024-03-17T08:20:01;6.50;99.90
24207;DHT22;12351;52.284;9.160;2024-03-17T08:22:51;6.60;99.90
24207;DHT22;12351;52.284;9.160;2024-03-17T08:25:49;6.70;99.90
24207;DHT22;12351;52.284;9.160;2024-03-17T08:28:31;6.80;99.90
24207;DHT22;12351;52.284;9.160;2024-03-17T08:31:19;6.80;99.90
24207;DHT22;12351;52.284;9.160;2024-03-17T08:34:07;6.90;99.90
24207;DHT22;12351;52.284;9.160;2024-03-17T08:36:54;7.00;99.90
24207;DHT22;12351;52.284;9.160;2024-03-17T08:39:44;7.10;99.90
24207;DHT22;12351;52.284;9.160;2024-03-17T08:42:38;7.20;99.90
24207;DHT22;12351;52.284;9.160;2024-03-17T08:45:25;7.30;99.90
24207;DHT22;12351;52.284;9.160;2024-03-17T08:48:16;7.40;99.90
24207;DHT22;12351;52.284;9.160;2024-03-17T08:51:09;7.40;99.90
24207;DHT22;12351;52.284;9.160;2024-03-17T08:53:57;7.50;99.90
24207;DHT22;12351;52.284;9.160;2024-03-17T08:56:46;7.60;99.90
24207;DHT22;12351;52.284;9.160;2024-03-17T08:59:36;7.60;99.90
24207;DHT22;12351;52.284;9.160;2024-03-17T09:02:26;7.70;99.90
24207;DHT22;12351;52.284;9.160;2024-03-17T09:05:14;7.90;99.90
24207;DHT22;12351;52.284;9.160;2024-03-17T09:08:04;8.00;99.90
24207;DHT22;12351;52.284;9.160;2024-03-17T09:10:55;8.10;99.90
24207;DHT22;12351;52.284;9.160;2024-03-17T09:13:42;8.30;99.90
24207;DHT22;12351;52.284;9.160;2024-03-17T09:16:34;8.40;99.90
24207;DHT22;12351;52.284;9.160;2024-03-17T09:19:23;8.50;99.90
24207;DHT22;12351;52.284;9.160;2024-03-17T09:22:10;8.70;99.90
24207;DHT22;12351;52.284;9.160;2024-03-17T09:24:57;8.80;99.90
24207;DHT22;12351;52.284;9.160;2024-03-17T09:27:47;8.90;99.90
24207;DHT22;12351;52.284;9.160;2024-03-17T09:30:36;9.00;99.90
24207;DHT22;12351;52.284;9.160;2024-03-17T09:33:30;9.00;99.90
24207;DHT22;12351;52.284;9.160;2024-03-17T09:36:18;9.10;99.90
24207;DHT22;12351;52.284;9.160;2024-03-17T09:39:08;9.20;99.90
24207;DHT22;12351;52.284;9.160;2024-03-17T09:41:59;9.30;99.90
24207;DHT22;12351;52.284;9.160;2024-03-17T09:44:48;9.30;99.90
24207;DHT22;12351;52.284;9.160;2024-03-17T09:47:37;9.40;99.90
24207;DHT22;12351;52.284;9.160;2024-03-17T09:50:29;9.60;99.90
24207;DHT22;12351;52.284;9.160;2024-03-17T09:56:13;9.70;99.90
24207;DHT22;12351;52.284;9.160;2024-03-17T09:59:05;9.80;99.90
24207;DHT22;12351;52.284;9.160;2024-03-17T10:01:52;10.10;99.90
24207;DHT22;12351;52.284;9.160;2024-03-17T10:04:41;10.30;99.90
24207;DHT22;12351;52.284;9.160;2024-03-17T10:10:24;10.40;99.90
24207;DHT22;12351;52.284;9.160;2024-03-17T10:13:12;10.50;99.90
24207;DHT22;12351;52.284;9.160;2024-03-17T10:16:01;10.50;99.90
24207;DHT22;12351;52.284;9.160;2024-03-17T10:21:46;10.80;99.90
24207;DHT22;12351;52.284;9.160;2024-03-17T10:24:33;10.90;99.90
24207;DHT22;12351;52.284;9.160;2024-03-17T10:27:24;11.00;99.90
24207;DHT22;12351;52.284;9.160;2024-03-17T10:30:17;11.10;99.90
24207;DHT22;12351;52.284;9.160;2024-03-17T10:33:07;11.20;99.90
24207;DHT22;12351;52.284;9.160;2024-03-17T10:36:02;11.20;99.90
24207;DHT22;12351;52.284;9.160;2024-03-17T10:41:39;11.30;99.90
24207;DHT22;12351;52.284;9.160;2024-03-17T10:44:31;11.40;99.90
24207;DHT22;12351;52.284;9.160;2024-03-17T10:47:21;11.50;99.90
24207;DHT22;12351;52.284;9.160;2024-03-17T10:50:12;11.70;99.90
24207;DHT22;12351;52.284;9.160;2024-03-17T10:53:03;11.70;99.90
24207;DHT22;12351;52.284;9.160;2024-03-17T10:56:04;11.80;99.90
24207;DHT22;12351;52.284;9.160;2024-03-17T10:58:47;12.10;99.90
24207;DHT22;12351;52.284;9.160;2024-03-17T11:01:35;12.10;99.90
24207;DHT22;12351;52.284;9.160;2024-03-17T11:04:26;12.30;99.90
24207;DHT22;12351;52.284;9.160;2024-03-17T11:07:15;12.30;99.90
24207;DHT22;12351;52.284;9.160;2024-03-17T11:10:05;12.30;99.90
24207;DHT22;12351;52.284;9.160;2024-03-17T11:12:55;12.40;99.90
24207;DHT22;12351;52.284;9.160;2024-03-17T11:15:46;12.50;99.90
24207;DHT22;12351;52.284;9.160;2024-03-17T11:18:34;12.50;99.90
24207;DHT22;12351;52.284;9.160;2024-03-17T11:21:22;12.40;99.90
24207;DHT22;12351;52.284;9.160;2024-03-17T11:27:29;12.50;99.90
24207;DHT22;12351;52.284;9.160;2024-03-17T11:29:54;12.60;99.90
24207;DHT22;12351;52.284;9.160;2024-03-17T11:32:44;12.70;99.90
24207;DHT22;12351;52.284;9.160;2024-03-17T11:35:33;12.70;99.90
24207;DHT22;12351;52.284;9.160;2024-03-17T11:49:39;12.90;99.90
24207;DHT22;12351;52.284;9.160;2024-03-17T11:52:28;13.00;99.90
24207;DHT22;12351;52.284;9.160;2024-03-17T11:55:17;13.20;99.90
24207;DHT22;12351;52.284;9.160;2024-03-17T11:58:11;13.30;99.90
24207;DHT22;12351;52.284;9.160;2024-03-17T12:01:01;13.30;99.90
24207;DHT22;12351;52.284;9.160;2024-03-17T12:03:49;13.30;99.90
24207;DHT22;12351;52.284;9.160;2024-03-17T12:06:38;13.30;99.90
24207;DHT22;12351;52.284;9.160;2024-03-17T12:09:31;13.30;99.90
24207;DHT22;12351;52.284;9.160;2024-03-17T12:12:21;13.40;99.90
24207;DHT22;12351;52.284;9.160;2024-03-17T12:15:15;13.50;99.90
24207;DHT22;12351;52.284;9.160;2024-03-17T12:18:05;13.70;99.90
24207;DHT22;12351;52.284;9.160;2024-03-17T12:20:53;13.90;99.90
24207;DHT22;12351;52.284;9.160;2024-03-17T12:23:45;14.00;99.90
24207;DHT22;12351;52.284;9.160;2024-03-17T12:26:35;14.10;99.90
24207;DHT22;12351;52.284;9.160;2024-03-17T12:29:27;14.20;99.90
24207;DHT22;12351;52.284;9.160;2024-03-17T12:35:12;14.30;99.90
24207;DHT22;12351;52.284;9.160;2024-03-17T12:38:02;14.50;99.90
24207;DHT22;12351;52.284;9.160;2024-03-17T12:40:50;14.50;99.90
24207;DHT22;12351;52.284;9.160;2024-03-17T12:43:47;14.40;99.90
24207;DHT22;12351;52.284;9.160;2024-03-17T12:46:28;14.30;99.90
24207;DHT22;12351;52.284;9.160;2024-03-17T12:49:17;14.40;99.90
24207;DHT22;12351;52.284;9.160;2024-03-17T12:52:14;14.40;99.90
24207;DHT22;12351;52.284;9.160;2024-03-17T12:57:49;14.50;99.90
24207;DHT22;12351;52.284;9.160;2024-03-17T13:00:40;14.60;99.90
24207;DHT22;12351;52.284;9.160;2024-03-17T13:03:29;14.60;99.90
24207;DHT22;12351;52.284;9.160;2024-03-17T13:06:22;14.60;99.90
24207;DHT22;12351;52.284;9.160;2024-03-17T13:09:11;14.60;99.90
24207;DHT22;12351;52.284;9.160;2024-03-17T13:11:59;14.60;99.90
24207;DHT22;12351;52.284;9.160;2024-03-17T13:14:49;14.70;99.90
24207;DHT22;12351;52.284;9.160;2024-03-17T13:17:37;14.70;99.90
24207;DHT22;12351;52.284;9.160;2024-03-17T13:20:25;14.70;99.90
24207;DHT22;12351;52.284;9.160;2024-03-17T13:23:14;14.80;99.90
24207;DHT22;12351;52.284;9.160;2024-03-17T13:26:02;14.90;99.90
24207;DHT22;12351;52.284;9.160;2024-03-17T13:28:51;15.00;99.90
24207;DHT22;12351;52.284;9.160;2024-03-17T13:31:42;15.10;99.90
24207;DHT22;12351;52.284;9.160;2024-03-17T13:34:32;15.20;99.90
24207;DHT22;12351;52.284;9.160;2024-03-17T13:37:23;15.20;99.90
24207;DHT22;12351;52.284;9.160;2024-03-17T13:40:14;15.20;99.90
24207;DHT22;12351;52.284;9.160;2024-03-17T13:43:05;15.30;99.90
24207;DHT22;12351;52.284;9.160;2024-03-17T13:45:54;15.30;99.90
24207;DHT22;12351;52.284;9.160;2024-03-17T13:48:45;15.30;99.90
24207;DHT22;12351;52.284;9.160;2024-03-17T13:51:37;15.50;99.90
24207;DHT22;12351;52.284;9.160;2024-03-17T13:54:29;15.60;99.90
24207;DHT22;12351;52.284;9.160;2024-03-17T13:57:19;15.70;99.90
24207;DHT22;12351;52.284;9.160;2024-03-17T14:00:08;15.70;99.90
24207;DHT22;12351;52.284;9.160;2024-03-17T14:02:57;15.70;99.90
24207;DHT22;12351;52.284;9.160;2024-03-17T14:05:48;15.80;99.90
24207;DHT22;12351;52.284;9.160;2024-03-17T14:08:36;15.80;99.90
24207;DHT22;12351;52.284;9.160;2024-03-17T14:11:25;15.80;99.90
24207;DHT22;12351;52.284;9.160;2024-03-17T14:14:14;15.80;99.90
24207;DHT22;12351;52.284;9.160;2024-03-17T14:17:02;15.80;99.90
24207;DHT22;12351;52.284;9.160;2024-03-17T14:19:53;15.80;99.90
24207;DHT22;12351;52.284;9.160;2024-03-17T14:22:41;15.80;99.90
24207;DHT22;12351;52.284;9.160;2024-03-17T14:25:30;15.70;99.90
24207;DHT22;12351;52.284;9.160;2024-03-17T14:28:18;15.70;99.90
24207;DHT22;12351;52.284;9.160;2024-03-17T14:31:09;15.80;99.90
24207;DHT22;12351;52.284;9.160;2024-03-17T14:33:57;15.70;99.90
24207;DHT22;12351;52.284;9.160;2024-03-17T14:36:48;15.70;99.90
24207;DHT22;12351;52.284;9.160;2024-03-17T14:39:35;15.70;99.90
24207;DHT22;12351;52.284;9.160;2024-03-17T14:42:23;15.70;99.90
24207;DHT22;12351;52.284;9.160;2024-03-17T14:45:12;15.60;99.90
24207;DHT22;12351;52.284;9.160;2024-03-17T14:48:00;15.60;99.90
24207;DHT22;12351;52.284;9.160;2024-03-17T14:50:49;15.60;99.90
24207;DHT22;12351;52.284;9.160;2024-03-17T14:53:37;15.50;99.90
24207;DHT22;12351;52.284;9.160;2024-03-17T14:56:27;15.50;99.90
24207;DHT22;12351;52.284;9.160;2024-03-17T14:59:17;15.50;99.90
24207;DHT22;12351;52.284;9.160;2024-03-17T15:02:05;15.40;99.90
24207;DHT22;12351;52.284;9.160;2024-03-17T15:04:55;15.30;99.90
24207;DHT22;12351;52.284;9.160;2024-03-17T15:07:43;15.30;99.90
24207;DHT22;12351;52.284;9.160;2024-03-17T15:10:33;15.20;99.90
24207;DHT22;12351;52.284;9.160;2024-03-17T15:13:21;15.20;99.90
24207;DHT22;12351;52.284;9.160;2024-03-17T15:16:11;15.20;99.90
24207;DHT22;12351;52.284;9.160;2024-03-17T15:21:52;15.10;99.90
24207;DHT22;12351;52.284;9.160;2024-03-17T15:24:44;15.00;99.90
24207;DHT22;12351;52.284;9.160;2024-03-17T15:27:31;15.00;99.90
24207;DHT22;12351;52.284;9.160;2024-03-17T15:30:20;15.00;99.90
24207;DHT22;12351;52.284;9.160;2024-03-17T15:33:13;14.90;99.90
24207;DHT22;12351;52.284;9.160;2024-03-17T15:36:03;14.90;99.90
24207;DHT22;12351;52.284;9.160;2024-03-17T15:38:52;14.90;99.90
24207;DHT22;12351;52.284;9.160;2024-03-17T15:41:40;14.80;99.90
24207;DHT22;12351;52.284;9.160;2024-03-17T15:44:30;14.80;99.90
24207;DHT22;12351;52.284;9.160;2024-03-17T15:47:19;14.80;99.90
24207;DHT22;12351;52.284;9.160;2024-03-17T15:50:08;14.70;99.90
24207;DHT22;12351;52.284;9.160;2024-03-17T15:52:59;14.70;99.90
24207;DHT22;12351;52.284;9.160;2024-03-17T15:58:37;14.60;99.90
24207;DHT22;12351;52.284;9.160;2024-03-17T16:01:27;14.60;99.90
24207;DHT22;12351;52.284;9.160;2024-03-17T16:04:14;14.50;99.90
24207;DHT22;12351;52.284;9.160;2024-03-17T16:07:03;14.50;99.90
24207;DHT22;12351;52.284;9.160;2024-03-17T16:09:53;14.50;99.90
24207;DHT22;12351;52.284;9.160;2024-03-17T16:12:40;14.40;99.90
24207;DHT22;12351;52.284;9.160;2024-03-17T16:15:30;14.40;99.90
24207;DHT22;12351;52.284;9.160;2024-03-17T16:18:20;14.40;99.90
24207;DHT22;12351;52.284;9.160;2024-03-17T16:24:03;14.30;99.90
24207;DHT22;12351;52.284;9.160;2024-03-17T16:26:51;14.20;99.90
24207;DHT22;12351;52.284;9.160;2024-03-17T16:29:41;14.10;99.90
24207;DHT22;12351;52.284;9.160;2024-03-17T16:32:30;14.10;99.90
24207;DHT22;12351;52.284;9.160;2024-03-17T16:35:20;14.00;99.90
24207;DHT22;12351;52.284;9.160;2024-03-17T16:38:10;14.00;99.90
24207;DHT22;12351;52.284;9.160;2024-03-17T16:40:58;14.00;99.90
24207;DHT22;12351;52.284;9.160;2024-03-17T16:49:34;13.80;99.90
24207;DHT22;12351;52.284;9.160;2024-03-17T16:52:23;13.80;99.90
24207;DHT22;12351;52.284;9.160;2024-03-17T16:55:13;13.70;99.90
24207;DHT22;12351;52.284;9.160;2024-03-17T16:58:01;13.70;99.90
24207;DHT22;12351;52.284;9.160;2024-03-17T17:00:53;13.60;99.90
24207;DHT22;12351;52.284;9.160;2024-03-17T17:03:40;13.60;99.90
24207;DHT22;12351;52.284;9.160;2024-03-17T17:06:29;13.50;99.90
24207;DHT22;12351;52.284;9.160;2024-03-17T17:09:19;13.50;99.90
24207;DHT22;12351;52.284;9.160;2024-03-17T17:12:11;13.40;99.90
24207;DHT22;12351;52.284;9.160;2024-03-17T17:14:58;13.40;99.90
24207;DHT22;12351;52.284;9.160;2024-03-17T17:17:49;13.40;99.90
24207;DHT22;12351;52.284;9.160;2024-03-17T17:20:39;13.30;99.90
24207;DHT22;12351;52.284;9.160;2024-03-17T17:23:31;13.30;99.90
24207;DHT22;12351;52.284;9.160;2024-03-17T17:26:20;13.20;99.90
24207;DHT22;12351;52.284;9.160;2024-03-17T17:29:08;13.10;99.90
24207;DHT22;12351;52.284;9.160;2024-03-17T17:31:58;13.00;99.90
24207;DHT22;12351;52.284;9.160;2024-03-17T17:34:48;13.00;99.90
24207;DHT22;12351;52.284;9.160;2024-03-17T17:37:38;12.90;99.90
24207;DHT22;12351;52.284;9.160;2024-03-17T17:40:28;12.90;99.90
24207;DHT22;12351;52.284;9.160;2024-03-17T17:43:17;12.80;99.90
24207;DHT22;12351;52.284;9.160;2024-03-17T17:46:05;12.70;99.90
24207;DHT22;12351;52.284;9.160;2024-03-17T17:48:55;12.70;99.90
24207;DHT22;12351;52.284;9.160;2024-03-17T17:51:45;12.60;99.90
24207;DHT22;12351;52.284;9.160;2024-03-17T17:54:35;12.50;99.90
24207;DHT22;12351;52.284;9.160;2024-03-17T17:57:22;12.50;99.90
24207;DHT22;12351;52.284;9.160;2024-03-17T18:00:11;12.40;99.90
24207;DHT22;12351;52.284;9.160;2024-03-17T18:03:00;12.30;99.90
24207;DHT22;12351;52.284;9.160;2024-03-17T18:05:48;12.30;99.90
24207;DHT22;12351;52.284;9.160;2024-03-17T18:08:39;12.20;99.90
24207;DHT22;12351;52.284;9.160;2024-03-17T18:11:27;12.20;99.90
24207;DHT22;12351;52.284;9.160;2024-03-17T18:14:15;12.10;99.90
24207;DHT22;12351;52.284;9.160;2024-03-17T18:17:06;12.10;99.90
24207;DHT22;12351;52.284;9.160;2024-03-17T18:19:55;12.00;99.90
24207;DHT22;12351;52.284;9.160;2024-03-17T18:22:43;11.90;99.90
24207;DHT22;12351;52.284;9.160;2024-03-17T18:25:33;11.90;99.90
24207;DHT22;12351;52.284;9.160;2024-03-17T18:28:22;11.90;99.90
24207;DHT22;12351;52.284;9.160;2024-03-17T18:31:12;11.80;99.90
24207;DHT22;12351;52.284;9.160;2024-03-17T18:34:00;11.80;99.90
24207;DHT22;12351;52.284;9.160;2024-03-17T18:36:51;11.70;99.90
24207;DHT22;12351;52.284;9.160;2024-03-17T18:39:38;11.60;99.90
24207;DHT22;12351;52.284;9.160;2024-03-17T18:42:28;11.60;99.90
24207;DHT22;12351;52.284;9.160;2024-03-17T18:45:18;11.60;99.90
24207;DHT22;12351;52.284;9.160;2024-03-17T18:48:08;11.50;99.90
24207;DHT22;12351;52.284;9.160;2024-03-17T18:50:56;11.50;99.90
24207;DHT22;12351;52.284;9.160;2024-03-17T18:53:48;11.40;99.90
24207;DHT22;12351;52.284;9.160;2024-03-17T18:56:40;11.40;99.90
24207;DHT22;12351;52.284;9.160;2024-03-17T18:59:28;11.30;99.90
24207;DHT22;12351;52.284;9.160;2024-03-17T19:02:17;11.30;99.90
24207;DHT22;12351;52.284;9.160;2024-03-17T19:05:05;11.30;99.90